sensor_id;sensor_type;location;lat;lon;timestamp;pressure;altitude;pressure_sealevel;temperature;humidity
70133;BME280;57495;49.922;7.966;2024-03-02T00:01:28;98658.50;;;5.01;100.00
70133;BME280;57495;49.922;7.966;2024-03-02T00:03:29;98655.75;;;4.93;100.00
70133;BME280;57495;49.922;7.966;2024-03-02T00:05:31;98659.09;;;4.86;100.00
70133;BME280;57495;49.922;7.966;2024-03-02T00:07:31;98654.63;;;4.76;100.00
70133;BME280;57495;49.922;7.966;2024-03-02T00:09:33;98651.56;;;4.71;100.00
70133;BME280;57495;49.922;7.966;2024-03-02T00:11:35;98651.44;;;4.63;100.00
70133;BME280;57495;49.922;7.966;2024-03-02T00:13:37;98646.53;;;4.58;100.00
70133;BME280;57495;49.922;7.966;2024-03-02T00:15:46;98652.41;;;4.62;100.00
70133;BME280;57495;49.922;7.966;2024-03-02T00:17:52;98647.09;;;4.62;100.00
70133;BME280;57495;49.922;7.966;2024-03-02T00:19:54;98656.88;;;4.61;100.00
70133;BME280;57495;49.922;7.966;2024-03-02T00:21:56;98653.78;;;4.66;100.00
70133;BME280;57495;49.922;7.966;2024-03-02T00:23:58;98643.91;;;4.58;100.00
70133;BME280;57495;49.922;7.966;2024-03-02T00:25:59;98649.75;;;4.62;100.00
70133;BME280;57495;49.922;7.966;2024-03-02T00:28:02;98646.00;;;4.74;100.00
70133;BME280;57495;49.922;7.966;2024-03-02T00:30:37;98652.69;;;4.69;100.00
70133;BME280;57495;49.922;7.966;2024-03-02T00:32:45;98657.69;;;4.72;100.00
70133;BME280;57495;49.922;7.966;2024-03-02T00:34:47;98647.97;;;4.72;100.00
70133;BME280;57495;49.922;7.966;2024-03-02T00:36:48;98651.56;;;4.71;100.00
70133;BME280;57495;49.922;7.966;2024-03-02T00:38:51;98657.44;;;4.65;100.00
70133;BME280;57495;49.922;7.966;2024-03-02T00:40:54;98651.56;;;4.71;100.00
70133;BME280;57495;49.922;7.966;2024-03-02T00:42:55;98652.00;;;4.67;100.00
70133;BME280;57495;49.922;7.966;2024-03-02T00:44:57;98649.19;;;4.68;100.00
70133;BME280;57495;49.922;7.966;2024-03-02T00:46:58;98652.41;;;4.62;100.00
70133;BME280;57495;49.922;7.966;2024-03-02T00:49:03;98643.75;;;4.60;100.00
70133;BME280;57495;49.922;7.966;2024-03-02T00:51:05;98639.59;;;4.67;100.00
70133;BME280;57495;49.922;7.966;2024-03-02T00:53:09;98638.22;;;4.63;100.00
70133;BME280;57495;49.922;7.966;2024-03-02T00:55:12;98637.34;;;4.62;100.00
70133;BME280;57495;49.922;7.966;2024-03-02T00:57:13;98637.78;;;4.58;100.00
70133;BME280;57495;49.922;7.966;2024-03-02T00:59:16;98638.47;;;4.60;100.00
70133;BME280;57495;49.922;7.966;2024-03-02T01:01:18;98639.59;;;4.67;100.00
70133;BME280;57495;49.922;7.966;2024-03-02T01:03:19;98634.03;;;4.70;100.00
70133;BME280;57495;49.922;7.966;2024-03-02T01:05:22;98629.53;;;4.80;100.00
70133;BME280;57495;49.922;7.966;2024-03-02T01:07:24;98630.09;;;4.94;100.00
70133;BME280;57495;49.922;7.966;2024-03-02T01:09:25;98637.63;;;4.98;100.00
70133;BME280;57495;49.922;7.966;2024-03-02T01:11:29;98637.06;;;4.95;100.00
70133;BME280;57495;49.922;7.966;2024-03-02T01:13:31;98637.63;;;4.79;100.00
70133;BME280;57495;49.922;7.966;2024-03-02T01:15:33;98634.00;;;4.80;100.00
70133;BME280;57495;49.922;7.966;2024-03-02T01:17:34;98627.75;;;4.71;100.00
70133;BME280;57495;49.922;7.966;2024-03-02T01:19:36;98627.31;;;4.66;100.00
70133;BME280;57495;49.922;7.966;2024-03-02T01:21:40;98636.53;;;4.62;100.00
70133;BME280;57495;49.922;7.966;2024-03-02T01:23:41;98633.59;;;4.55;100.00
70133;BME280;57495;49.922;7.966;2024-03-02T01:25:41;98628.44;;;4.54;100.00
70133;BME280;57495;49.922;7.966;2024-03-02T01:27:43;98629.97;;;4.47;100.00
70133;BME280;57495;49.922;7.966;2024-03-02T01:29:44;98625.66;;;4.45;100.00
70133;BME280;57495;49.922;7.966;2024-03-02T01:31:46;98633.75;;;4.54;100.00
70133;BME280;57495;49.922;7.966;2024-03-02T01:33:48;98625.66;;;4.55;100.00
70133;BME280;57495;49.922;7.966;2024-03-02T01:35:49;98620.06;;;4.58;100.00
70133;BME280;57495;49.922;7.966;2024-03-02T01:37:52;98619.66;;;4.73;100.00
70133;BME280;57495;49.922;7.966;2024-03-02T01:39:53;98620.91;;;4.78;100.00
70133;BME280;57495;49.922;7.966;2024-03-02T01:41:54;98620.09;;;4.78;100.00
70133;BME280;57495;49.922;7.966;2024-03-02T01:43:56;98616.16;;;4.62;100.00
70133;BME280;57495;49.922;7.966;2024-03-02T01:45:57;98612.28;;;4.57;100.00
70133;BME280;57495;49.922;7.966;2024-03-02T01:47:59;98614.78;;;4.49;100.00
70133;BME280;57495;49.922;7.966;2024-03-02T01:50:00;98609.34;;;4.40;100.00
70133;BME280;57495;49.922;7.966;2024-03-02T01:52:02;98610.03;;;4.33;100.00
70133;BME280;57495;49.922;7.966;2024-03-02T01:54:04;98608.34;;;4.22;100.00
70133;BME280;57495;49.922;7.966;2024-03-02T01:56:06;98608.63;;;4.19;100.00
70133;BME280;57495;49.922;7.966;2024-03-02T01:58:07;98610.16;;;4.12;100.00
70133;BME280;57495;49.922;7.966;2024-03-02T02:00:10;98608.06;;;4.05;100.00
70133;BME280;57495;49.922;7.966;2024-03-02T02:02:14;98610.72;;;4.05;100.00
70133;BME280;57495;49.922;7.966;2024-03-02T02:04:15;98610.41;;;3.99;100.00
70133;BME280;57495;49.922;7.966;2024-03-02T02:06:16;98619.88;;;4.01;100.00
70133;BME280;57495;49.922;7.966;2024-03-02T02:08:18;98610.53;;;3.97;100.00
70133;BME280;57495;49.922;7.966;2024-03-02T02:10:21;98610.84;;;3.94;100.00
70133;BME280;57495;49.922;7.966;2024-03-02T02:12:22;98603.59;;;3.96;100.00
70133;BME280;57495;49.922;7.966;2024-03-02T02:14:23;98612.50;;;3.95;100.00
70133;BME280;57495;49.922;7.966;2024-03-02T02:16:24;98608.31;;;3.93;100.00
70133;BME280;57495;49.922;7.966;2024-03-02T02:18:26;98609.16;;;3.93;100.00
70133;BME280;57495;49.922;7.966;2024-03-02T02:20:28;98606.72;;;3.71;100.00
70133;BME280;57495;49.922;7.966;2024-03-02T02:22:31;98607.16;;;3.76;100.00
70133;BME280;57495;49.922;7.966;2024-03-02T02:24:32;98604.22;;;3.79;100.00
70133;BME280;57495;49.922;7.966;2024-03-02T02:26:34;98603.19;;;3.60;100.00
70133;BME280;57495;49.922;7.966;2024-03-02T02:28:35;98601.97;;;3.64;100.00
70133;BME280;57495;49.922;7.966;2024-03-02T02:30:36;98593.34;;;3.62;100.00
70133;BME280;57495;49.922;7.966;2024-03-02T02:32:38;98587.75;;;3.56;100.00
70133;BME280;57495;49.922;7.966;2024-03-02T02:34:39;98585.38;;;3.53;100.00
70133;BME280;57495;49.922;7.966;2024-03-02T02:36:40;98583.69;;;3.52;100.00
70133;BME280;57495;49.922;7.966;2024-03-02T02:38:44;98586.50;;;3.50;100.00
70133;BME280;57495;49.922;7.966;2024-03-02T02:40:47;98577.44;;;3.43;100.00
70133;BME280;57495;49.922;7.966;2024-03-02T02:42:48;98587.88;;;3.54;100.00
70133;BME280;57495;49.922;7.966;2024-03-02T02:44:49;98585.53;;;3.61;100.00
70133;BME280;57495;49.922;7.966;2024-03-02T02:46:51;98585.53;;;3.61;100.00
70133;BME280;57495;49.922;7.966;2024-03-02T02:48:52;98583.75;;;3.61;100.00
70133;BME280;57495;49.922;7.966;2024-03-02T02:50:54;98582.66;;;3.74;100.00
70133;BME280;57495;49.922;7.966;2024-03-02T02:52:55;98570.31;;;3.84;100.00
70133;BME280;57495;49.922;7.966;2024-03-02T02:54:58;98572.13;;;3.93;100.00
70133;BME280;57495;49.922;7.966;2024-03-02T02:57:00;98571.56;;;3.99;100.00
70133;BME280;57495;49.922;7.966;2024-03-02T02:59:01;98575.59;;;4.03;100.00
70133;BME280;57495;49.922;7.966;2024-03-02T03:01:03;98577.28;;;4.04;100.00
70133;BME280;57495;49.922;7.966;2024-03-02T03:03:04;98577.97;;;3.97;100.00
70133;BME280;57495;49.922;7.966;2024-03-02T03:05:06;98572.69;;;3.97;100.00
70133;BME280;57495;49.922;7.966;2024-03-02T03:07:07;98570.63;;;4.00;100.00
70133;BME280;57495;49.922;7.966;2024-03-02T03:09:09;98568.22;;;4.07;100.00
70133;BME280;57495;49.922;7.966;2024-03-02T03:11:12;98565.75;;;4.05;100.00
70133;BME280;57495;49.922;7.966;2024-03-02T03:13:14;98570.06;;;4.06;100.00
70133;BME280;57495;49.922;7.966;2024-03-02T03:15:16;98574.66;;;4.04;100.00
70133;BME280;57495;49.922;7.966;2024-03-02T03:17:17;98564.34;;;4.01;100.00
70133;BME280;57495;49.922;7.966;2024-03-02T03:19:19;98571.56;;;3.99;100.00
70133;BME280;57495;49.922;7.966;2024-03-02T03:21:20;98568.66;;;4.02;100.00
70133;BME280;57495;49.922;7.966;2024-03-02T03:23:21;98570.63;;;4.00;100.00
70133;BME280;57495;49.922;7.966;2024-03-02T03:25:22;98570.88;;;4.07;100.00
70133;BME280;57495;49.922;7.966;2024-03-02T03:27:25;98566.16;;;4.11;100.00
70133;BME280;57495;49.922;7.966;2024-03-02T03:29:26;98568.78;;;4.11;100.00
70133;BME280;57495;49.922;7.966;2024-03-02T03:31:28;98569.50;;;4.13;100.00
70133;BME280;57495;49.922;7.966;2024-03-02T03:33:29;98570.06;;;4.16;100.00
70133;BME280;57495;49.922;7.966;2024-03-02T03:35:31;98566.31;;;4.19;100.00
70133;BME280;57495;49.922;7.966;2024-03-02T03:37:31;98571.88;;;4.16;100.00
70133;BME280;57495;49.922;7.966;2024-03-02T03:39:34;98568.53;;;4.14;100.00
70133;BME280;57495;49.922;7.966;2024-03-02T03:41:34;98565.75;;;4.15;100.00
70133;BME280;57495;49.922;7.966;2024-03-02T03:43:37;98575.50;;;4.15;100.00
70133;BME280;57495;49.922;7.966;2024-03-02T03:45:38;98565.88;;;4.14;100.00
70133;BME280;57495;49.922;7.966;2024-03-02T03:47:40;98566.31;;;4.19;100.00
70133;BME280;57495;49.922;7.966;2024-03-02T03:49:41;98566.00;;;4.22;100.00
70133;BME280;57495;49.922;7.966;2024-03-02T03:51:43;98564.94;;;4.15;100.00
70133;BME280;57495;49.922;7.966;2024-03-02T03:53:43;98562.41;;;4.23;100.00
70133;BME280;57495;49.922;7.966;2024-03-02T03:55:45;98569.53;;;4.22;100.00
70133;BME280;57495;49.922;7.966;2024-03-02T03:57:49;98573.13;;;4.21;100.00
70133;BME280;57495;49.922;7.966;2024-03-02T03:59:51;98571.75;;;4.17;100.00
70133;BME280;57495;49.922;7.966;2024-03-02T04:01:52;98561.03;;;4.19;100.00
70133;BME280;57495;49.922;7.966;2024-03-02T04:03:54;98562.41;;;4.13;100.00
70133;BME280;57495;49.922;7.966;2024-03-02T04:05:54;98559.75;;;4.03;100.00
70133;BME280;57495;49.922;7.966;2024-03-02T04:07:55;98558.09;;;4.02;100.00
70133;BME280;57495;49.922;7.966;2024-03-02T04:09:56;98562.94;;;3.97;100.00
70133;BME280;57495;49.922;7.966;2024-03-02T04:11:57;98569.47;;;3.93;100.00
70133;BME280;57495;49.922;7.966;2024-03-02T04:13:59;98564.88;;;3.95;100.00
70133;BME280;57495;49.922;7.966;2024-03-02T04:16:03;98561.28;;;3.96;100.00
70133;BME280;57495;49.922;7.966;2024-03-02T04:18:05;98574.34;;;3.98;100.00
70133;BME280;57495;49.922;7.966;2024-03-02T04:20:07;98572.00;;;3.95;100.00
70133;BME280;57495;49.922;7.966;2024-03-02T04:22:07;98577.16;;;3.96;100.00
70133;BME280;57495;49.922;7.966;2024-03-02T04:24:10;98577.13;;;3.86;100.00
70133;BME280;57495;49.922;7.966;2024-03-02T04:26:11;98581.31;;;3.89;100.00
70133;BME280;57495;49.922;7.966;2024-03-02T04:28:12;98585.22;;;3.85;100.00
70133;BME280;57495;49.922;7.966;2024-03-02T04:30:14;98581.00;;;3.82;100.00
70133;BME280;57495;49.922;7.966;2024-03-02T04:32:16;98589.50;;;3.86;100.00
70133;BME280;57495;49.922;7.966;2024-03-02T04:34:17;98591.19;;;3.87;100.00
70133;BME280;57495;49.922;7.966;2024-03-02T04:36:18;98590.06;;;3.80;100.00
70133;BME280;57495;49.922;7.966;2024-03-02T04:38:21;98592.72;;;3.80;100.00
70133;BME280;57495;49.922;7.966;2024-03-02T04:40:23;98597.88;;;3.81;100.00
70133;BME280;57495;49.922;7.966;2024-03-02T04:42:24;98595.06;;;3.83;100.00
70133;BME280;57495;49.922;7.966;2024-03-02T04:44:24;98594.09;;;3.84;100.00
70133;BME280;57495;49.922;7.966;2024-03-02T04:46:26;98600.09;;;3.86;100.00
70133;BME280;57495;49.922;7.966;2024-03-02T04:48:29;98596.31;;;3.79;100.00
70133;BME280;57495;49.922;7.966;2024-03-02T04:50:30;98596.84;;;3.73;100.00
70133;BME280;57495;49.922;7.966;2024-03-02T04:52:31;98593.53;;;3.80;100.00
70133;BME280;57495;49.922;7.966;2024-03-02T04:54:33;98603.00;;;3.83;100.00
70133;BME280;57495;49.922;7.966;2024-03-02T04:56:55;98603.03;;;3.93;100.00
70133;BME280;57495;49.922;7.966;2024-03-02T04:58:57;98603.44;;;3.88;100.00
70133;BME280;57495;49.922;7.966;2024-03-02T05:00:58;98606.63;;;3.82;100.00
70133;BME280;57495;49.922;7.966;2024-03-02T05:02:59;98605.25;;;3.87;100.00
70133;BME280;57495;49.922;7.966;2024-03-02T05:05:03;98606.34;;;3.85;100.00
70133;BME280;57495;49.922;7.966;2024-03-02T05:07:03;98606.34;;;3.85;100.00
70133;BME280;57495;49.922;7.966;2024-03-02T05:09:05;98611.66;;;3.85;100.00
70133;BME280;57495;49.922;7.966;2024-03-02T05:11:06;98616.88;;;3.65;100.00
70133;BME280;57495;49.922;7.966;2024-03-02T05:13:25;98615.69;;;3.48;100.00
70133;BME280;57495;49.922;7.966;2024-03-02T05:15:27;98624.28;;;3.41;100.00
70133;BME280;57495;49.922;7.966;2024-03-02T05:17:28;98617.84;;;3.34;100.00
70133;BME280;57495;49.922;7.966;2024-03-02T05:19:29;98620.94;;;3.39;100.00
70133;BME280;57495;49.922;7.966;2024-03-02T05:21:31;98617.63;;;3.46;100.00
70133;BME280;57495;49.922;7.966;2024-03-02T05:23:32;98610.53;;;3.47;100.00
70133;BME280;57495;49.922;7.966;2024-03-02T05:25:34;98621.19;;;3.36;100.00
70133;BME280;57495;49.922;7.966;2024-03-02T05:27:35;98623.00;;;3.35;100.00
70133;BME280;57495;49.922;7.966;2024-03-02T05:29:36;98629.13;;;3.36;100.00
70133;BME280;57495;49.922;7.966;2024-03-02T05:31:38;98636.06;;;3.37;100.00
70133;BME280;57495;49.922;7.966;2024-03-02T05:33:39;98635.09;;;3.38;100.00
70133;BME280;57495;49.922;7.966;2024-03-02T05:35:41;98640.44;;;3.47;100.00
70133;BME280;57495;49.922;7.966;2024-03-02T05:37:43;98641.84;;;3.52;100.00
70133;BME280;57495;49.922;7.966;2024-03-02T05:39:45;98637.84;;;3.57;100.00
70133;BME280;57495;49.922;7.966;2024-03-02T05:41:46;98637.13;;;3.55;100.00
70133;BME280;57495;49.922;7.966;2024-03-02T05:43:48;98631.91;;;3.65;100.00
70133;BME280;57495;49.922;7.966;2024-03-02T05:45:49;98633.88;;;3.73;100.00
70133;BME280;57495;49.922;7.966;2024-03-02T05:47:51;98636.94;;;3.78;100.00
70133;BME280;57495;49.922;7.966;2024-03-02T05:49:52;98638.59;;;3.79;100.00
70133;BME280;57495;49.922;7.966;2024-03-02T05:51:54;98638.31;;;3.72;100.00
70133;BME280;57495;49.922;7.966;2024-03-02T05:53:55;98627.41;;;3.56;100.00
70133;BME280;57495;49.922;7.966;2024-03-02T05:55:57;98634.53;;;3.65;100.00
70133;BME280;57495;49.922;7.966;2024-03-02T05:57:57;98638.44;;;3.40;100.00
70133;BME280;57495;49.922;7.966;2024-03-02T06:00:16;98646.00;;;3.44;100.00
70133;BME280;57495;49.922;7.966;2024-03-02T06:02:18;98640.28;;;3.49;100.00
70133;BME280;57495;49.922;7.966;2024-03-02T06:04:19;98642.41;;;3.55;100.00
70133;BME280;57495;49.922;7.966;2024-03-02T06:06:21;98636.03;;;3.58;100.00
70133;BME280;57495;49.922;7.966;2024-03-02T06:08:22;98637.31;;;3.63;100.00
70133;BME280;57495;49.922;7.966;2024-03-02T06:10:25;98625.22;;;3.71;100.00
70133;BME280;57495;49.922;7.966;2024-03-02T06:12:26;98628.31;;;3.76;100.00
70133;BME280;57495;49.922;7.966;2024-03-02T06:14:28;98630.06;;;3.65;100.00
70133;BME280;57495;49.922;7.966;2024-03-02T06:16:29;98623.25;;;3.63;100.00
70133;BME280;57495;49.922;7.966;2024-03-02T06:18:30;98632.72;;;3.65;100.00
70133;BME280;57495;49.922;7.966;2024-03-02T06:20:31;98640.81;;;3.74;100.00
70133;BME280;57495;49.922;7.966;2024-03-02T06:22:33;98642.63;;;3.73;100.00
70133;BME280;57495;49.922;7.966;2024-03-02T06:24:35;98654.81;;;3.64;100.00
70133;BME280;57495;49.922;7.966;2024-03-02T06:26:38;98655.28;;;3.70;100.00
70133;BME280;57495;49.922;7.966;2024-03-02T06:28:40;98654.03;;;3.74;100.00
70133;BME280;57495;49.922;7.966;2024-03-02T06:30:40;98656.41;;;3.77;100.00
70133;BME280;57495;49.922;7.966;2024-03-02T06:32:42;98656.41;;;3.77;100.00
70133;BME280;57495;49.922;7.966;2024-03-02T06:34:43;98659.31;;;3.74;100.00
70133;BME280;57495;49.922;7.966;2024-03-02T06:36:44;98653.06;;;3.75;100.00
70133;BME280;57495;49.922;7.966;2024-03-02T06:38:45;98662.41;;;3.79;100.00
70133;BME280;57495;49.922;7.966;2024-03-02T06:40:47;98655.28;;;3.70;100.00
70133;BME280;57495;49.922;7.966;2024-03-02T06:42:48;98657.81;;;3.81;100.00
70133;BME280;57495;49.922;7.966;2024-03-02T06:44:50;98659.50;;;3.82;100.00
70133;BME280;57495;49.922;7.966;2024-03-02T06:46:50;98658.81;;;3.80;100.00
70133;BME280;57495;49.922;7.966;2024-03-02T06:48:52;98661.16;;;3.83;100.00
70133;BME280;57495;49.922;7.966;2024-03-02T06:50:53;98656.72;;;3.83;100.00
70133;BME280;57495;49.922;7.966;2024-03-02T06:52:56;98659.94;;;3.87;100.00
70133;BME280;57495;49.922;7.966;2024-03-02T06:54:57;98668.28;;;3.92;100.00
70133;BME280;57495;49.922;7.966;2024-03-02T06:56:58;98677.91;;;3.93;100.00
70133;BME280;57495;49.922;7.966;2024-03-02T06:59:01;98675.69;;;3.98;100.00
70133;BME280;57495;49.922;7.966;2024-03-02T07:01:03;98672.63;;;4.03;100.00
70133;BME280;57495;49.922;7.966;2024-03-02T07:03:08;98666.25;;;4.05;100.00
70133;BME280;57495;49.922;7.966;2024-03-02T07:05:09;98673.66;;;4.12;100.00
70133;BME280;57495;49.922;7.966;2024-03-02T07:07:11;98675.31;;;4.13;100.00
70133;BME280;57495;49.922;7.966;2024-03-02T07:09:12;98678.13;;;4.21;100.00
70133;BME280;57495;49.922;7.966;2024-03-02T07:11:13;98682.72;;;4.19;100.00
70133;BME280;57495;49.922;7.966;2024-03-02T07:13:13;98676.59;;;4.28;100.00
70133;BME280;57495;49.922;7.966;2024-03-02T07:15:16;98667.97;;;4.26;100.00
70133;BME280;57495;49.922;7.966;2024-03-02T07:17:39;98689.28;;;4.34;100.00
70133;BME280;57495;49.922;7.966;2024-03-02T07:19:40;98690.53;;;4.30;100.00
70133;BME280;57495;49.922;7.966;2024-03-02T07:21:42;98695.56;;;4.43;100.00
70133;BME280;57495;49.922;7.966;2024-03-02T07:23:43;98693.50;;;4.47;100.00
70133;BME280;57495;49.922;7.966;2024-03-02T07:25:44;98684.03;;;4.54;100.00
70133;BME280;57495;49.922;7.966;2024-03-02T07:27:45;98693.94;;;4.52;100.00
70133;BME280;57495;49.922;7.966;2024-03-02T07:29:47;98688.63;;;4.61;100.00
70133;BME280;57495;49.922;7.966;2024-03-02T07:31:50;98690.47;;;4.71;100.00
70133;BME280;57495;49.922;7.966;2024-03-02T07:33:50;98693.38;;;4.77;100.00
70133;BME280;57495;49.922;7.966;2024-03-02T07:35:52;98691.44;;;4.79;100.00
70133;BME280;57495;49.922;7.966;2024-03-02T07:37:52;98697.13;;;4.84;100.00
70133;BME280;57495;49.922;7.966;2024-03-02T07:39:54;98694.78;;;4.91;100.00
70133;BME280;57495;49.922;7.966;2024-03-02T07:41:55;98692.41;;;4.88;100.00
70133;BME280;57495;49.922;7.966;2024-03-02T07:44:01;98697.00;;;4.76;100.00
70133;BME280;57495;49.922;7.966;2024-03-02T07:46:03;98695.44;;;4.74;100.00
70133;BME280;57495;49.922;7.966;2024-03-02T07:48:06;98694.22;;;4.78;100.00
70133;BME280;57495;49.922;7.966;2024-03-02T07:50:08;98691.97;;;4.83;100.00
70133;BME280;57495;49.922;7.966;2024-03-02T07:52:09;98703.69;;;4.80;100.00
70133;BME280;57495;49.922;7.966;2024-03-02T07:54:11;98707.03;;;4.92;100.00
70133;BME280;57495;49.922;7.966;2024-03-02T07:56:12;98702.84;;;4.99;100.00
70133;BME280;57495;49.922;7.966;2024-03-02T07:58:14;98703.53;;;5.01;100.00
70133;BME280;57495;49.922;7.966;2024-03-02T08:00:16;98708.44;;;4.96;100.00
70133;BME280;57495;49.922;7.966;2024-03-02T08:02:17;98712.88;;;5.15;100.00
70133;BME280;57495;49.922;7.966;2024-03-02T08:04:19;98706.75;;;5.25;100.00
70133;BME280;57495;49.922;7.966;2024-03-02T08:06:20;98706.75;;;5.25;100.00
70133;BME280;57495;49.922;7.966;2024-03-02T08:08:22;98712.16;;;5.33;100.00
70133;BME280;57495;49.922;7.966;2024-03-02T08:10:23;98717.31;;;5.34;100.00
70133;BME280;57495;49.922;7.966;2024-03-02T08:12:24;98717.47;;;5.42;100.00
70133;BME280;57495;49.922;7.966;2024-03-02T08:14:26;98722.06;;;5.50;100.00
70133;BME280;57495;49.922;7.966;2024-03-02T08:16:27;98718.94;;;5.55;100.00
70133;BME280;57495;49.922;7.966;2024-03-02T08:18:28;98721.88;;;5.61;100.00
70133;BME280;57495;49.922;7.966;2024-03-02T08:20:31;98725.50;;;5.60;100.00
70133;BME280;57495;49.922;7.966;2024-03-02T08:22:33;98728.84;;;5.62;100.00
70133;BME280;57495;49.922;7.966;2024-03-02T08:24:33;98725.34;;;5.62;100.00
70133;BME280;57495;49.922;7.966;2024-03-02T08:26:37;98728.47;;;5.57;100.00
70133;BME280;57495;49.922;7.966;2024-03-02T08:28:38;98730.56;;;5.54;100.00
70133;BME280;57495;49.922;7.966;2024-03-02T08:30:40;98728.03;;;5.52;100.00
70133;BME280;57495;49.922;7.966;2024-03-02T08:32:42;98733.88;;;5.66;100.00
70133;BME280;57495;49.922;7.966;2024-03-02T08:34:42;98732.50;;;5.42;100.00
70133;BME280;57495;49.922;7.966;2024-03-02T08:36:45;98718.41;;;5.61;100.00
70133;BME280;57495;49.922;7.966;2024-03-02T08:38:48;98720.34;;;5.69;100.00
70133;BME280;57495;49.922;7.966;2024-03-02T08:40:50;98724.81;;;5.68;100.00
70133;BME280;57495;49.922;7.966;2024-03-02T08:42:52;98718.78;;;5.76;100.00
70133;BME280;57495;49.922;7.966;2024-03-02T08:44:53;98725.88;;;5.85;100.00
70133;BME280;57495;49.922;7.966;2024-03-02T08:46:55;98723.31;;;5.93;100.00
70133;BME280;57495;49.922;7.966;2024-03-02T08:48:56;98731.44;;;6.02;100.00
70133;BME280;57495;49.922;7.966;2024-03-02T08:50:57;98728.88;;;6.10;100.00
70133;BME280;57495;49.922;7.966;2024-03-02T08:53:00;98714.44;;;6.22;100.00
70133;BME280;57495;49.922;7.966;2024-03-02T08:55:02;98721.13;;;6.26;100.00
70133;BME280;57495;49.922;7.966;2024-03-02T08:57:04;98720.38;;;6.34;100.00
70133;BME280;57495;49.922;7.966;2024-03-02T08:59:05;98720.31;;;6.44;100.00
70133;BME280;57495;49.922;7.966;2024-03-02T09:01:06;98716.59;;;6.54;100.00
70133;BME280;57495;49.922;7.966;2024-03-02T09:03:08;98719.88;;;6.66;100.00
70133;BME280;57495;49.922;7.966;2024-03-02T09:05:10;98709.06;;;6.77;100.00
70133;BME280;57495;49.922;7.966;2024-03-02T09:07:12;98712.59;;;6.86;100.00
70133;BME280;57495;49.922;7.966;2024-03-02T09:09:13;98708.88;;;6.97;100.00
70133;BME280;57495;49.922;7.966;2024-03-02T09:11:15;98708.28;;;7.03;100.00
70133;BME280;57495;49.922;7.966;2024-03-02T09:13:16;98711.41;;;7.16;100.00
70133;BME280;57495;49.922;7.966;2024-03-02T09:15:18;98709.03;;;7.31;100.00
70133;BME280;57495;49.922;7.966;2024-03-02T09:17:19;98714.25;;;7.41;100.00
70133;BME280;57495;49.922;7.966;2024-03-02T09:19:21;98715.44;;;7.47;100.00
70133;BME280;57495;49.922;7.966;2024-03-02T09:21:22;98707.88;;;7.34;100.00
70133;BME280;57495;49.922;7.966;2024-03-02T09:23:25;98710.69;;;7.59;100.00
70133;BME280;57495;49.922;7.966;2024-03-02T09:25:28;98709.13;;;8.00;100.00
70133;BME280;57495;49.922;7.966;2024-03-02T09:27:28;98700.44;;;8.41;100.00
70133;BME280;57495;49.922;7.966;2024-03-02T09:29:30;98701.88;;;8.61;100.00
70133;BME280;57495;49.922;7.966;2024-03-02T09:31:32;98706.06;;;8.80;100.00
70133;BME280;57495;49.922;7.966;2024-03-02T09:33:33;98704.59;;;9.02;100.00
70133;BME280;57495;49.922;7.966;2024-03-02T09:35:34;98696.94;;;9.40;100.00
70133;BME280;57495;49.922;7.966;2024-03-02T09:37:35;98705.53;;;9.75;100.00
70133;BME280;57495;49.922;7.966;2024-03-02T09:39:36;98702.81;;;10.00;100.00
70133;BME280;57495;49.922;7.966;2024-03-02T09:41:39;98700.38;;;10.21;100.00
70133;BME280;57495;49.922;7.966;2024-03-02T09:43:41;98698.56;;;10.14;100.00
70133;BME280;57495;49.922;7.966;2024-03-02T09:45:42;98692.97;;;10.40;100.00
70133;BME280;57495;49.922;7.966;2024-03-02T09:47:46;98689.16;;;10.34;100.00
70133;BME280;57495;49.922;7.966;2024-03-02T09:49:48;98678.66;;;10.24;100.00
70133;BME280;57495;49.922;7.966;2024-03-02T09:51:50;98685.25;;;10.05;100.00
70133;BME280;57495;49.922;7.966;2024-03-02T09:53:51;98687.66;;;9.92;100.00
70133;BME280;57495;49.922;7.966;2024-03-02T09:55:53;98686.84;;;9.83;100.00
70133;BME280;57495;49.922;7.966;2024-03-02T09:57:56;98697.34;;;9.85;100.00
70133;BME280;57495;49.922;7.966;2024-03-02T09:59:57;98701.00;;;9.92;100.00
70133;BME280;57495;49.922;7.966;2024-03-02T10:02:00;98699.38;;;9.75;100.00
70133;BME280;57495;49.922;7.966;2024-03-02T10:04:01;98701.53;;;9.71;100.00
70133;BME280;57495;49.922;7.966;2024-03-02T10:06:21;98705.88;;;9.72;100.00
70133;BME280;57495;49.922;7.966;2024-03-02T10:08:23;98702.84;;;9.75;100.00
70133;BME280;57495;49.922;7.966;2024-03-02T10:10:34;98697.56;;;9.59;100.00
70133;BME280;57495;49.922;7.966;2024-03-02T10:12:35;98691.75;;;9.47;100.00
70133;BME280;57495;49.922;7.966;2024-03-02T10:14:38;98688.06;;;9.40;100.00
70133;BME280;57495;49.922;7.966;2024-03-02T10:16:39;98692.75;;;9.21;100.00
70133;BME280;57495;49.922;7.966;2024-03-02T10:18:41;98691.94;;;9.21;100.00
70133;BME280;57495;49.922;7.966;2024-03-02T10:20:42;98682.25;;;9.12;100.00
70133;BME280;57495;49.922;7.966;2024-03-02T10:22:44;98684.25;;;9.09;100.00
70133;BME280;57495;49.922;7.966;2024-03-02T10:24:46;98684.59;;;9.06;100.00
70133;BME280;57495;49.922;7.966;2024-03-02T10:26:47;98682.25;;;9.12;100.00
70133;BME280;57495;49.922;7.966;2024-03-02T10:28:48;98674.44;;;9.02;100.00
70133;BME280;57495;49.922;7.966;2024-03-02T10:30:52;98677.09;;;9.10;100.00
70133;BME280;57495;49.922;7.966;2024-03-02T10:32:54;98682.25;;;9.12;100.00
70133;BME280;57495;49.922;7.966;2024-03-02T10:34:56;98680.59;;;9.02;100.00
70133;BME280;57495;49.922;7.966;2024-03-02T10:36:58;98681.63;;;9.01;100.00
70133;BME280;57495;49.922;7.966;2024-03-02T10:38:58;98691.59;;;9.07;100.00
70133;BME280;57495;49.922;7.966;2024-03-02T10:41:01;98684.09;;;9.19;100.00
70133;BME280;57495;49.922;7.966;2024-03-02T10:43:04;98685.09;;;9.10;100.00
70133;BME280;57495;49.922;7.966;2024-03-02T10:45:09;98681.94;;;9.15;100.00
70133;BME280;57495;49.922;7.966;2024-03-02T10:47:13;98685.59;;;9.05;100.00